« Back
NWS Peachtree City, Ga » Text Product » ATL Terminal Aerodrome Forecast


Printer-friendly Version
Current Version              Previous Versions:   1  2  3  4  5  6  7  8  9  

Terminal Aerodrome Forecast

783
FTUS42 KFFC 280731 AAA
TAFATL
TAF AMD
KATL 280731Z 2808/2912 25008KT P6SM FEW020 FEW080
     FM281500 25010G18KT P6SM BKN030
     FM281800 25012G20KT P6SM VCSH BKN050
     FM290100 27010KT P6SM SCT050 BKN100
     FM290600 26006KT P6SM SCT250=

USA.gov is the U.S. government's official web portal to all federal, state and local government web resources and services.